createdAt,value
2017-10-12T00:00:07.703Z,60.90
2017-10-12T00:02:36.169Z,60.00
2017-10-12T00:05:04.581Z,60.10
2017-10-12T00:07:32.204Z,60.10
2017-10-12T00:09:59.822Z,60.00
2017-10-12T00:12:28.235Z,59.30
2017-10-12T00:14:55.862Z,59.10
2017-10-12T00:17:23.514Z,60.10
2017-10-12T00:19:51.131Z,59.50
2017-10-12T00:22:18.763Z,60.30
2017-10-12T00:24:46.399Z,60.30
2017-10-12T00:27:14.027Z,61.40
2017-10-12T00:29:41.689Z,59.70
2017-10-12T00:32:10.087Z,60.10
2017-10-12T00:34:38.478Z,58.90
2017-10-12T00:37:06.209Z,58.90
2017-10-12T00:39:33.829Z,60.30
2017-10-12T00:42:02.242Z,59.80
2017-10-12T00:44:29.865Z,59.80
2017-10-12T00:46:57.494Z,61.20
2017-10-12T00:49:25.978Z,57.80
2017-10-12T00:51:53.593Z,57.80
2017-10-12T00:54:21.265Z,57.30
2017-10-12T00:56:48.885Z,58.00
2017-10-12T00:59:17.286Z,57.50
2017-10-12T01:01:44.930Z,57.30
2017-10-12T01:04:12.544Z,57.90
2017-10-12T01:06:40.186Z,57.90
2017-10-12T01:09:07.798Z,57.50
2017-10-12T01:11:35.410Z,58.20
2017-10-12T01:14:03.049Z,57.40
2017-10-12T01:16:31.426Z,57.60
2017-10-12T01:18:59.074Z,57.70
2017-10-12T01:21:26.858Z,57.00
2017-10-12T01:23:54.465Z,57.90
2017-10-12T01:26:22.106Z,56.60
2017-10-12T01:28:49.721Z,59.30
2017-10-12T01:31:17.377Z,56.30
2017-10-12T01:33:44.997Z,55.80
2017-10-12T01:36:12.606Z,56.10
2017-10-12T01:38:40.239Z,57.30
2017-10-12T01:41:07.859Z,56.80
2017-10-12T01:43:36.315Z,55.80
2017-10-12T01:46:03.930Z,55.80
2017-10-12T01:48:43.507Z,55.70
2017-10-12T01:51:11.881Z,56.80
2017-10-12T01:53:39.495Z,56.60
2017-10-12T01:56:07.195Z,56.60
2017-10-12T01:58:34.810Z,55.90
2017-10-12T02:01:03.226Z,56.70
2017-10-12T02:03:30.842Z,56.60
2017-10-12T02:05:58.466Z,56.80
2017-10-12T02:08:26.885Z,57.00
2017-10-12T02:10:54.498Z,57.00
2017-10-12T02:13:22.146Z,57.20
2017-10-12T02:15:49.770Z,57.70
2017-10-12T02:18:18.146Z,57.40
2017-10-12T02:20:45.840Z,57.40
2017-10-12T02:23:13.459Z,57.40
2017-10-12T02:25:41.111Z,57.50
2017-10-12T02:28:08.736Z,58.50
2017-10-12T02:30:36.353Z,59.40
2017-10-12T02:33:04.015Z,58.40
2017-10-12T02:35:31.646Z,58.80
2017-10-12T02:37:59.303Z,59.30
2017-10-12T02:40:27.687Z,60.80
2017-10-12T02:42:55.307Z,60.60
2017-10-12T02:45:23.723Z,61.70
2017-10-12T02:47:51.366Z,61.60
2017-10-12T02:50:19.021Z,61.70
2017-10-12T02:52:46.783Z,60.60
2017-10-12T02:55:14.398Z,61.20
2017-10-12T02:57:42.034Z,61.30
2017-10-12T03:00:09.646Z,61.30
2017-10-12T03:02:37.370Z,62.50
2017-10-12T03:05:04.992Z,63.60
2017-10-12T03:07:32.619Z,64.30
2017-10-12T03:10:00.259Z,63.40
2017-10-12T03:12:27.880Z,63.40
2017-10-12T03:14:55.778Z,63.10
2017-10-12T03:17:23.400Z,63.20
2017-10-12T03:19:51.783Z,64.70
2017-10-12T03:22:19.432Z,64.70
2017-10-12T03:24:47.169Z,64.70
2017-10-12T03:27:14.813Z,66.40
2017-10-12T03:29:42.426Z,65.80
2017-10-12T03:32:10.081Z,65.10
2017-10-12T03:34:38.483Z,68.00
2017-10-12T03:37:07.517Z,68.00
2017-10-12T03:39:35.170Z,67.00
2017-10-12T03:42:03.014Z,66.60
2017-10-12T03:44:30.621Z,67.10
2017-10-12T03:46:58.265Z,66.80
2017-10-12T03:49:25.938Z,66.20
2017-10-12T03:51:53.586Z,66.20
2017-10-12T03:54:21.210Z,66.50
2017-10-12T03:56:48.890Z,66.90
2017-10-12T03:59:16.639Z,66.90
2017-10-12T04:01:44.254Z,67.20
2017-10-12T04:04:11.907Z,67.50
2017-10-12T04:06:39.522Z,67.50
2017-10-12T04:09:07.186Z,67.80
2017-10-12T04:11:34.899Z,67.80
2017-10-12T04:14:03.275Z,68.70
2017-10-12T04:16:30.926Z,68.50
2017-10-12T04:18:58.534Z,68.40
2017-10-12T04:21:26.207Z,68.90
2017-10-12T04:23:53.859Z,69.60
2017-10-12T04:26:21.482Z,69.10
2017-10-12T04:28:49.890Z,71.70
2017-10-12T04:31:17.503Z,71.60
2017-10-12T04:33:46.030Z,70.90
2017-10-12T04:36:13.678Z,70.90
2017-10-12T04:38:41.294Z,70.30
2017-10-12T04:41:08.940Z,71.40
2017-10-12T04:43:36.559Z,70.30
2017-10-12T04:46:04.939Z,70.60
2017-10-12T04:48:32.577Z,70.50
2017-10-12T04:51:00.195Z,69.90
2017-10-12T04:53:27.845Z,68.90
2017-10-12T04:55:55.458Z,67.70
2017-10-12T04:58:23.070Z,68.40
2017-10-12T05:00:50.705Z,67.90
2017-10-12T05:03:18.314Z,69.00
2017-10-12T05:05:46.054Z,69.90
2017-10-12T05:08:13.666Z,73.20
2017-10-12T05:10:41.280Z,73.80
2017-10-12T05:13:09.699Z,75.50
2017-10-12T05:15:37.314Z,75.40
2017-10-12T05:18:05.175Z,75.00
2017-10-12T05:20:32.796Z,76.00
2017-10-12T05:23:00.506Z,75.30
2017-10-12T05:25:28.146Z,73.70
2017-10-12T05:27:55.826Z,74.00
2017-10-12T05:30:23.467Z,73.70
2017-10-12T05:32:51.863Z,71.30
2017-10-12T05:35:19.478Z,71.20
2017-10-12T05:37:47.291Z,69.10
2017-10-12T05:40:14.898Z,66.50
2017-10-12T05:42:42.565Z,66.20
2017-10-12T05:45:10.200Z,68.00
2017-10-12T05:47:37.814Z,66.90
2017-10-12T05:50:06.328Z,67.40
2017-10-12T05:52:33.950Z,67.40
2017-10-12T05:55:01.619Z,66.80
2017-10-12T05:57:29.243Z,67.80
2017-10-12T05:59:56.967Z,68.60
2017-10-12T06:02:25.397Z,68.10
2017-10-12T06:04:53.031Z,67.60
2017-10-12T06:07:20.684Z,67.60
2017-10-12T06:09:48.319Z,67.10
2017-10-12T06:12:16.059Z,67.30
2017-10-12T06:14:43.690Z,67.10
2017-10-12T06:17:11.298Z,66.40
2017-10-12T06:19:38.949Z,65.20
2017-10-12T06:22:06.622Z,63.80
2017-10-12T06:24:34.242Z,64.10
2017-10-12T06:27:01.875Z,62.10
2017-10-12T06:29:29.490Z,62.10
2017-10-12T06:31:57.264Z,61.60
2017-10-12T06:34:24.891Z,61.10
2017-10-12T06:36:52.518Z,61.90
2017-10-12T06:39:20.160Z,62.50
2017-10-12T06:41:47.784Z,62.00
2017-10-12T06:44:16.194Z,61.60
2017-10-12T06:46:44.081Z,61.60
2017-10-12T06:49:11.702Z,62.80
2017-10-12T06:51:39.577Z,63.70
2017-10-12T06:54:07.234Z,65.10
2017-10-12T06:56:34.882Z,63.60
2017-10-12T06:59:03.266Z,63.80
2017-10-12T07:01:30.881Z,63.80
2017-10-12T07:03:58.526Z,63.40
2017-10-12T07:06:26.251Z,62.30
2017-10-12T07:08:53.926Z,63.30
2017-10-12T07:11:21.555Z,62.80
2017-10-12T07:13:49.183Z,63.20
2017-10-12T07:16:16.885Z,62.90
2017-10-12T07:18:45.277Z,63.40
2017-10-12T07:21:12.983Z,63.40
2017-10-12T07:23:40.599Z,62.50
2017-10-12T07:26:08.227Z,63.50
2017-10-12T07:28:35.883Z,63.80
2017-10-12T07:31:03.494Z,62.80
2017-10-12T07:33:31.146Z,63.50
2017-10-12T07:35:59.078Z,62.90
2017-10-12T07:38:27.458Z,63.80
2017-10-12T07:40:55.115Z,63.80
2017-10-12T07:43:22.823Z,64.00
2017-10-12T07:45:50.489Z,63.20
2017-10-12T07:48:18.879Z,62.70
2017-10-12T07:50:46.495Z,62.70
2017-10-12T07:53:14.910Z,62.40
2017-10-12T07:55:42.538Z,62.40
2017-10-12T07:58:10.227Z,62.40
2017-10-12T08:00:37.882Z,61.30
2017-10-12T08:03:05.538Z,62.50
2017-10-12T08:05:33.937Z,61.40
2017-10-12T08:08:01.574Z,61.40
2017-10-12T08:10:29.234Z,61.60
2017-10-12T08:12:56.866Z,61.70
2017-10-12T08:15:24.491Z,61.40
2017-10-12T08:17:52.131Z,58.40
2017-10-12T08:20:19.767Z,58.60
2017-10-12T08:22:47.433Z,59.40
2017-10-12T08:25:15.831Z,58.80
2017-10-12T08:27:43.447Z,58.70
2017-10-12T08:30:11.874Z,58.70
2017-10-12T08:32:39.497Z,58.60
2017-10-12T08:35:07.209Z,59.10
2017-10-12T08:37:34.827Z,58.90
2017-10-12T08:40:02.459Z,58.20
2017-10-12T08:42:30.110Z,58.70
2017-10-12T08:44:57.726Z,57.50
2017-10-12T08:47:25.381Z,52.00
2017-10-12T08:49:52.975Z,53.10
2017-10-12T08:52:20.571Z,51.80
2017-10-12T08:54:48.188Z,50.50
2017-10-12T08:57:16.550Z,54.50
2017-10-12T08:59:44.218Z,54.50
2017-10-12T09:02:11.837Z,54.70
2017-10-12T09:04:39.456Z,55.00
2017-10-12T09:07:07.115Z,55.40
2017-10-12T09:09:34.742Z,55.40
2017-10-12T09:12:02.406Z,54.00
2017-10-12T09:14:30.786Z,52.30
2017-10-12T09:16:59.166Z,50.70
2017-10-12T09:19:27.558Z,50.40
2017-10-12T09:21:55.195Z,50.30
2017-10-12T09:24:22.982Z,51.00
2017-10-12T09:26:50.577Z,52.90
2017-10-12T09:29:18.177Z,43.90
2017-10-12T09:31:45.838Z,39.30
2017-10-12T09:34:13.433Z,42.10
2017-10-12T09:36:41.070Z,41.30
2017-10-12T09:39:08.659Z,36.20
2017-10-12T09:41:36.283Z,33.00
2017-10-12T09:44:03.910Z,34.70
2017-10-12T09:46:31.522Z,35.50
2017-10-12T09:48:59.155Z,31.80
2017-10-12T09:51:27.630Z,32.40
2017-10-12T09:53:55.421Z,31.80
2017-10-12T09:56:23.044Z,28.50
2017-10-12T09:58:50.634Z,27.90
2017-10-12T10:01:18.264Z,27.50
2017-10-12T10:03:45.879Z,26.00
2017-10-12T10:06:13.484Z,27.20
2017-10-12T10:08:41.106Z,30.10
2017-10-12T10:11:08.697Z,31.20
2017-10-12T10:13:36.360Z,25.90
2017-10-12T10:16:04.720Z,28.00
2017-10-12T10:18:33.087Z,28.60
2017-10-12T10:21:01.474Z,33.80
2017-10-12T10:23:29.077Z,33.70
2017-10-12T10:25:56.887Z,33.40
2017-10-12T10:28:24.478Z,32.50
2017-10-12T10:30:52.096Z,36.50
2017-10-12T10:33:19.733Z,39.30
2017-10-12T10:35:47.411Z,36.90
2017-10-12T10:38:15.049Z,36.30
2017-10-12T10:40:42.793Z,36.10
2017-10-12T10:43:10.417Z,38.40
2017-10-12T10:45:38.040Z,41.20
2017-10-12T10:48:05.837Z,39.70
2017-10-12T10:50:33.470Z,38.60
2017-10-12T10:53:01.058Z,40.10
2017-10-12T10:55:28.661Z,36.90
2017-10-12T10:57:56.358Z,35.40
2017-10-12T11:00:24.725Z,35.40
2017-10-12T11:02:53.078Z,37.10
2017-10-12T11:05:20.707Z,37.00
2017-10-12T11:07:48.316Z,33.90
2017-10-12T11:10:16.131Z,37.40
2017-10-12T11:12:44.561Z,35.80
2017-10-12T11:15:12.164Z,35.80
2017-10-12T11:17:39.758Z,32.50
2017-10-12T11:20:07.516Z,32.80
2017-10-12T11:22:35.179Z,36.70
2017-10-12T11:25:02.918Z,33.50
2017-10-12T11:27:31.319Z,35.70
2017-10-12T11:29:58.911Z,35.10
2017-10-12T11:32:26.550Z,35.80
2017-10-12T11:34:54.147Z,34.80
2017-10-12T11:37:21.759Z,37.10
2017-10-12T11:39:49.486Z,36.10
2017-10-12T11:42:17.258Z,37.00
2017-10-12T11:44:45.834Z,37.60
2017-10-12T11:47:14.202Z,37.10
2017-10-12T11:49:42.559Z,35.70
2017-10-12T11:52:10.185Z,35.70
2017-10-12T11:54:37.782Z,34.70
2017-10-12T11:57:05.414Z,36.30
2017-10-12T11:59:33.771Z,34.00
2017-10-12T12:02:02.138Z,30.90
2017-10-12T12:04:29.765Z,30.90
2017-10-12T12:06:57.365Z,30.80
2017-10-12T12:09:25.000Z,31.90
2017-10-12T12:11:52.605Z,33.80
2017-10-12T12:14:20.199Z,33.90
2017-10-12T12:16:47.830Z,33.80
2017-10-12T12:19:15.519Z,30.80
2017-10-12T12:21:43.159Z,30.40
2017-10-12T12:24:10.751Z,29.40
2017-10-12T12:26:39.114Z,27.10
2017-10-12T12:29:07.512Z,27.70
2017-10-12T12:31:35.117Z,27.60
2017-10-12T12:34:02.908Z,31.90
2017-10-12T12:36:30.498Z,34.00
2017-10-12T12:38:58.174Z,35.10
2017-10-12T12:41:26.565Z,40.00
2017-10-12T12:43:54.173Z,39.90
2017-10-12T12:46:22.578Z,41.50
2017-10-12T12:48:50.213Z,41.30
2017-10-12T12:51:17.851Z,42.10
2017-10-12T12:53:45.486Z,43.40
2017-10-12T12:56:13.192Z,45.60
2017-10-12T12:58:40.853Z,40.10
2017-10-12T13:01:08.447Z,39.40
2017-10-12T13:03:36.284Z,39.70
2017-10-12T13:06:03.887Z,37.60
2017-10-12T13:08:31.486Z,32.50
2017-10-12T13:10:59.107Z,33.70
2017-10-12T13:13:27.490Z,30.00
2017-10-12T13:15:55.407Z,29.80
2017-10-12T13:18:23.002Z,30.10
2017-10-12T13:20:50.615Z,28.30
2017-10-12T13:23:19.010Z,23.60
2017-10-12T13:25:46.634Z,23.60
2017-10-12T13:28:14.273Z,25.80
2017-10-12T13:30:41.890Z,25.60
2017-10-12T13:33:09.486Z,29.40
2017-10-12T13:35:37.158Z,31.90
2017-10-12T13:38:04.754Z,31.70
2017-10-12T13:40:33.159Z,33.60
2017-10-12T13:43:00.775Z,33.60
2017-10-12T13:45:28.383Z,30.70
2017-10-12T13:47:56.041Z,31.60
2017-10-12T13:50:23.649Z,28.50
2017-10-12T13:52:51.294Z,30.00
2017-10-12T13:55:18.915Z,29.20
2017-10-12T13:57:46.509Z,29.70
2017-10-12T14:00:14.134Z,29.50
2017-10-12T14:02:41.727Z,29.30
2017-10-12T14:05:10.132Z,29.80
2017-10-12T14:07:37.867Z,29.60
2017-10-12T14:10:05.526Z,29.20
2017-10-12T14:12:33.179Z,27.60
2017-10-12T14:15:00.794Z,29.60
2017-10-12T14:17:28.450Z,28.50
2017-10-12T14:19:56.141Z,27.20
2017-10-12T14:22:23.770Z,26.80
2017-10-12T14:24:51.411Z,26.50
2017-10-12T14:27:19.042Z,27.80
2017-10-12T14:29:46.734Z,27.80
2017-10-12T14:32:15.130Z,27.00
2017-10-12T14:34:42.761Z,26.90
2017-10-12T14:37:10.489Z,29.30
2017-10-12T14:39:38.883Z,29.00
2017-10-12T14:42:06.542Z,29.00
2017-10-12T14:44:34.162Z,30.00
2017-10-12T14:47:02.546Z,30.20
2017-10-12T14:49:30.198Z,30.10
2017-10-12T14:51:57.811Z,29.70
2017-10-12T14:54:26.239Z,30.90
2017-10-12T14:56:53.862Z,30.80
2017-10-12T14:59:21.499Z,30.10
2017-10-12T15:01:49.156Z,30.30
2017-10-12T15:04:16.862Z,31.80
2017-10-12T15:06:45.283Z,30.50
2017-10-12T15:09:12.899Z,30.50
2017-10-12T15:11:40.611Z,31.50
2017-10-12T15:14:08.251Z,28.50
2017-10-12T15:16:35.882Z,29.60
2017-10-12T15:19:03.530Z,29.30
2017-10-12T15:21:31.155Z,29.90
2017-10-12T15:23:58.789Z,33.20
2017-10-12T15:26:26.462Z,31.80
2017-10-12T15:28:54.076Z,31.90
2017-10-12T15:31:21.730Z,34.00
2017-10-12T15:33:49.365Z,34.90
2017-10-12T15:36:17.182Z,35.30
2017-10-12T15:38:44.827Z,34.30
2017-10-12T15:41:12.445Z,33.80
2017-10-12T15:43:40.112Z,34.50
2017-10-12T15:46:07.734Z,34.80
2017-10-12T15:48:35.374Z,34.30
2017-10-12T15:51:03.019Z,36.90
2017-10-12T15:53:30.649Z,34.90
2017-10-12T15:55:58.344Z,37.30
2017-10-12T15:58:27.544Z,34.50
2017-10-12T16:00:55.423Z,34.40
2017-10-12T16:03:23.074Z,37.60
2017-10-12T16:05:50.714Z,39.10
2017-10-12T16:08:18.374Z,38.10
2017-10-12T16:10:46.194Z,39.30
2017-10-12T16:13:14.579Z,38.60
2017-10-12T16:15:42.263Z,38.50
2017-10-12T16:18:09.888Z,37.50
2017-10-12T16:20:37.538Z,39.70
2017-10-12T16:23:05.394Z,39.60
2017-10-12T16:25:33.031Z,40.40
2017-10-12T16:28:00.695Z,41.90
2017-10-12T16:30:28.311Z,42.50
2017-10-12T16:33:10.934Z,41.90
2017-10-12T16:35:23.658Z,44.70
2017-10-12T16:37:51.286Z,44.10
2017-10-12T16:40:18.938Z,41.90
2017-10-12T16:42:46.589Z,44.30
2017-10-12T16:47:41.823Z,47.90
2017-10-12T16:50:09.447Z,48.40
2017-10-12T16:52:37.298Z,48.70
2017-10-12T16:55:04.954Z,49.40
2017-10-12T16:57:33.377Z,50.80
2017-10-12T17:00:01.006Z,50.80
2017-10-12T17:02:28.640Z,51.20
2017-10-12T17:04:56.331Z,53.10
2017-10-12T17:07:23.950Z,54.80
2017-10-12T17:09:51.599Z,56.50
2017-10-12T17:12:19.229Z,56.90
2017-10-12T17:14:46.879Z,57.20
2017-10-12T17:17:14.548Z,58.20
2017-10-12T17:19:42.217Z,58.00
2017-10-12T17:22:09.996Z,59.40
2017-10-12T17:24:39.241Z,59.30
2017-10-12T17:27:06.965Z,60.60
2017-10-12T17:29:35.516Z,61.70
2017-10-12T17:32:03.276Z,61.50
2017-10-12T17:34:30.949Z,62.20
2017-10-12T17:36:58.574Z,61.50
2017-10-12T17:39:26.203Z,62.00
2017-10-12T17:41:53.860Z,63.20
2017-10-12T17:44:21.484Z,63.60
2017-10-12T17:46:49.173Z,63.60
2017-10-12T17:49:16.869Z,62.30
2017-10-12T17:51:44.536Z,63.20
2017-10-12T17:54:39.846Z,66.50
2017-10-12T17:56:39.961Z,66.30
2017-10-12T17:59:07.662Z,68.00
2017-10-12T18:01:35.322Z,68.00
2017-10-12T18:04:02.979Z,68.70
2017-10-12T18:06:30.767Z,68.00
2017-10-12T18:08:58.400Z,69.40
2017-10-12T18:11:26.211Z,69.30
2017-10-12T18:13:53.899Z,70.60
2017-10-12T18:16:21.541Z,70.50
2017-10-12T18:18:49.195Z,69.90
2017-10-12T18:21:16.926Z,70.20
2017-10-12T18:23:44.601Z,70.10
2017-10-12T18:26:12.222Z,70.30
2017-10-12T18:28:39.866Z,70.10
2017-10-12T18:31:07.582Z,70.50
2017-10-12T18:33:36.191Z,69.80
2017-10-12T18:36:03.866Z,69.60
2017-10-12T18:38:31.485Z,66.60
2017-10-12T18:40:59.119Z,67.50
2017-10-12T18:43:26.953Z,67.00
2017-10-12T18:45:54.594Z,66.70
2017-10-12T18:48:22.257Z,65.90
2017-10-12T18:50:49.882Z,66.60
2017-10-12T18:53:18.260Z,65.90
2017-10-12T18:55:46.189Z,65.80
2017-10-12T18:58:14.592Z,65.30
2017-10-12T19:00:42.251Z,65.10
2017-10-12T19:03:09.870Z,65.90
2017-10-12T19:05:38.898Z,64.20
2017-10-12T19:08:06.551Z,64.70
2017-10-12T19:10:34.180Z,64.50
2017-10-12T19:13:01.879Z,64.90
2017-10-12T19:15:30.268Z,66.30
2017-10-12T19:17:57.915Z,65.50
2017-10-12T19:20:25.947Z,64.90
2017-10-12T19:22:53.586Z,63.50
2017-10-12T19:25:22.008Z,64.30
2017-10-12T19:27:49.644Z,64.30
2017-10-12T19:30:17.378Z,63.40
2017-10-12T19:32:45.023Z,64.10
2017-10-12T19:35:14.340Z,63.80
2017-10-12T19:37:42.984Z,63.60
2017-10-12T19:40:11.202Z,61.20
2017-10-12T19:42:38.843Z,57.90
2017-10-12T19:45:06.506Z,57.40
2017-10-12T19:47:34.130Z,58.60
2017-10-12T19:50:02.549Z,57.20
2017-10-12T19:52:30.180Z,57.20
2017-10-12T19:54:57.805Z,58.30
2017-10-12T19:57:26.229Z,57.50
2017-10-12T19:59:53.863Z,57.50
2017-10-12T20:02:21.892Z,58.10
2017-10-12T20:04:49.790Z,58.10
2017-10-12T20:07:17.402Z,57.90
2017-10-12T20:09:45.050Z,59.20
2017-10-12T20:12:12.697Z,55.40
2017-10-12T20:14:40.480Z,57.90
2017-10-12T20:17:08.154Z,58.90
2017-10-12T20:19:35.905Z,56.70
2017-10-12T20:22:03.567Z,56.40
2017-10-12T20:24:31.205Z,57.30
2017-10-12T20:26:58.882Z,54.10
2017-10-12T20:29:33.438Z,55.70
2017-10-12T20:31:54.550Z,55.60
2017-10-12T20:34:22.977Z,55.70
2017-10-12T20:36:50.604Z,55.70
2017-10-12T20:39:18.255Z,54.10
2017-10-12T20:44:13.579Z,55.70
2017-10-12T20:46:42.033Z,55.40
2017-10-12T20:49:09.651Z,55.50
2017-10-12T20:51:37.311Z,56.50
2017-10-12T20:54:04.954Z,56.80
2017-10-12T20:56:32.592Z,57.30
2017-10-12T20:59:00.282Z,56.40
2017-10-12T21:01:27.907Z,57.30
2017-10-12T21:03:55.877Z,58.10
2017-10-12T21:06:23.500Z,57.20
2017-10-12T21:08:51.133Z,57.80
2017-10-12T21:11:18.841Z,56.20
2017-10-12T21:13:47.283Z,58.80
2017-10-12T21:16:14.947Z,58.80
2017-10-12T21:18:43.343Z,57.80
2017-10-12T21:21:11.002Z,57.80
2017-10-12T21:23:38.650Z,57.50
2017-10-12T21:26:06.342Z,57.00
2017-10-12T21:28:34.010Z,58.30
2017-10-12T21:31:01.677Z,55.50
2017-10-12T21:33:29.307Z,55.00
2017-10-12T21:35:57.002Z,55.30
2017-10-12T21:38:24.843Z,57.90
2017-10-12T21:40:52.555Z,54.40
2017-10-12T21:43:20.171Z,55.00
2017-10-12T21:45:47.815Z,54.50
2017-10-12T21:48:15.451Z,57.00
2017-10-12T21:50:43.072Z,55.20
2017-10-12T21:53:10.714Z,54.70
2017-10-12T21:55:38.349Z,56.10
2017-10-12T21:58:06.336Z,56.10
2017-10-12T22:00:33.989Z,57.80
2017-10-12T22:03:01.622Z,59.10
2017-10-12T22:05:29.804Z,60.20
2017-10-12T22:07:57.427Z,60.60
2017-10-12T22:10:25.842Z,60.70
2017-10-12T22:12:54.719Z,60.10
2017-10-12T22:15:22.601Z,60.10
2017-10-12T22:17:50.978Z,61.00
2017-10-12T22:20:19.100Z,62.00
2017-10-12T22:22:46.922Z,62.60
2017-10-12T22:25:16.136Z,60.70
2017-10-12T22:27:43.756Z,62.10
2017-10-12T22:30:13.074Z,62.70
2017-10-12T22:32:40.689Z,62.60
2017-10-12T22:35:09.382Z,63.30
2017-10-12T22:37:36.997Z,63.30
2017-10-12T22:40:04.615Z,64.40
2017-10-12T22:42:32.275Z,64.90
2017-10-12T22:44:59.895Z,65.10
2017-10-12T22:47:27.556Z,64.80
2017-10-12T22:49:55.258Z,64.10
2017-10-12T22:52:22.953Z,64.10
2017-10-12T22:54:50.569Z,61.80
2017-10-12T22:57:18.233Z,64.30
2017-10-12T22:59:45.882Z,63.30
2017-10-12T23:02:13.508Z,62.90
2017-10-12T23:04:41.181Z,63.60
2017-10-12T23:07:08.876Z,64.40
2017-10-12T23:09:36.514Z,64.00
2017-10-12T23:12:04.946Z,62.90
2017-10-12T23:14:32.562Z,62.80
2017-10-12T23:17:00.193Z,63.30
2017-10-12T23:19:27.913Z,62.70
2017-10-12T23:21:55.610Z,64.50
2017-10-12T23:24:23.230Z,64.40
2017-10-12T23:26:50.869Z,62.70
2017-10-12T23:29:19.247Z,63.80
2017-10-12T23:31:46.914Z,63.80
2017-10-12T23:34:14.538Z,64.20
2017-10-12T23:36:42.150Z,63.70
2017-10-12T23:39:09.791Z,62.90
2017-10-12T23:41:37.407Z,64.90
2017-10-12T23:44:05.101Z,65.20
2017-10-12T23:46:33.475Z,65.60
2017-10-12T23:49:01.104Z,65.40
2017-10-12T23:51:28.754Z,65.80
2017-10-12T23:53:56.367Z,66.30
2017-10-12T23:56:24.029Z,66.70
2017-10-12T23:58:51.650Z,67.30
